sensor_id;sensor_type;location;lat;lon;timestamp;P1;durP1;ratioP1;P2;durP2;ratioP2
85695;SDS011;76127;57.874;6.856;2024-01-30T00:02:12;12.98;;;7.47;;
85695;SDS011;76127;57.874;6.856;2024-01-30T00:04:38;13.45;;;7.20;;
85695;SDS011;76127;57.874;6.856;2024-01-30T00:07:04;15.27;;;7.65;;
85695;SDS011;76127;57.874;6.856;2024-01-30T00:09:31;13.27;;;7.25;;
85695;SDS011;76127;57.874;6.856;2024-01-30T00:11:57;12.93;;;7.20;;
85695;SDS011;76127;57.874;6.856;2024-01-30T00:14:23;11.95;;;6.35;;
85695;SDS011;76127;57.874;6.856;2024-01-30T00:16:50;14.25;;;7.07;;
85695;SDS011;76127;57.874;6.856;2024-01-30T00:19:17;12.23;;;7.28;;
85695;SDS011;76127;57.874;6.856;2024-01-30T00:21:43;13.38;;;7.80;;
85695;SDS011;76127;57.874;6.856;2024-01-30T00:24:09;11.95;;;6.93;;
85695;SDS011;76127;57.874;6.856;2024-01-30T00:26:35;14.80;;;7.38;;
85695;SDS011;76127;57.874;6.856;2024-01-30T00:29:01;13.05;;;7.43;;
85695;SDS011;76127;57.874;6.856;2024-01-30T00:31:28;13.55;;;7.13;;
85695;SDS011;76127;57.874;6.856;2024-01-30T00:33:54;14.25;;;7.78;;
85695;SDS011;76127;57.874;6.856;2024-01-30T00:36:21;13.02;;;7.18;;
85695;SDS011;76127;57.874;6.856;2024-01-30T00:38:46;18.30;;;7.97;;
85695;SDS011;76127;57.874;6.856;2024-01-30T00:41:13;13.93;;;7.28;;
85695;SDS011;76127;57.874;6.856;2024-01-30T00:43:39;13.85;;;7.18;;
85695;SDS011;76127;57.874;6.856;2024-01-30T00:46:05;12.25;;;7.13;;
85695;SDS011;76127;57.874;6.856;2024-01-30T00:48:31;13.63;;;7.30;;
85695;SDS011;76127;57.874;6.856;2024-01-30T00:50:57;12.15;;;7.28;;
85695;SDS011;76127;57.874;6.856;2024-01-30T00:53:23;12.20;;;6.60;;
85695;SDS011;76127;57.874;6.856;2024-01-30T00:55:49;13.15;;;7.75;;
85695;SDS011;76127;57.874;6.856;2024-01-30T00:58:15;13.90;;;7.18;;
85695;SDS011;76127;57.874;6.856;2024-01-30T01:00:41;12.50;;;7.38;;
85695;SDS011;76127;57.874;6.856;2024-01-30T01:03:07;12.80;;;7.10;;
85695;SDS011;76127;57.874;6.856;2024-01-30T01:05:34;12.18;;;7.35;;
85695;SDS011;76127;57.874;6.856;2024-01-30T01:08:00;12.40;;;6.80;;
85695;SDS011;76127;57.874;6.856;2024-01-30T01:10:26;11.95;;;7.03;;
85695;SDS011;76127;57.874;6.856;2024-01-30T01:12:53;11.57;;;6.97;;
85695;SDS011;76127;57.874;6.856;2024-01-30T01:15:19;13.40;;;7.55;;
85695;SDS011;76127;57.874;6.856;2024-01-30T01:17:45;12.82;;;7.53;;
85695;SDS011;76127;57.874;6.856;2024-01-30T01:20:11;13.55;;;7.20;;
85695;SDS011;76127;57.874;6.856;2024-01-30T01:22:37;15.80;;;7.07;;
85695;SDS011;76127;57.874;6.856;2024-01-30T01:25:04;12.23;;;7.25;;
85695;SDS011;76127;57.874;6.856;2024-01-30T01:27:33;13.43;;;7.25;;
85695;SDS011;76127;57.874;6.856;2024-01-30T01:30:03;12.50;;;7.30;;
85695;SDS011;76127;57.874;6.856;2024-01-30T01:32:31;12.07;;;6.75;;
85695;SDS011;76127;57.874;6.856;2024-01-30T01:34:57;14.25;;;7.75;;
85695;SDS011;76127;57.874;6.856;2024-01-30T01:37:23;13.02;;;7.25;;
85695;SDS011;76127;57.874;6.856;2024-01-30T01:39:51;13.98;;;7.22;;
85695;SDS011;76127;57.874;6.856;2024-01-30T01:42:17;13.00;;;7.55;;
85695;SDS011;76127;57.874;6.856;2024-01-30T01:44:43;12.23;;;7.22;;
85695;SDS011;76127;57.874;6.856;2024-01-30T01:47:10;15.43;;;7.28;;
85695;SDS011;76127;57.874;6.856;2024-01-30T01:49:36;12.65;;;7.13;;
85695;SDS011;76127;57.874;6.856;2024-01-30T01:52:03;11.60;;;7.47;;
85695;SDS011;76127;57.874;6.856;2024-01-30T01:54:29;11.52;;;7.43;;
85695;SDS011;76127;57.874;6.856;2024-01-30T01:56:56;11.27;;;7.40;;
85695;SDS011;76127;57.874;6.856;2024-01-30T01:59:22;12.73;;;6.95;;
85695;SDS011;76127;57.874;6.856;2024-01-30T02:01:49;11.93;;;7.43;;
85695;SDS011;76127;57.874;6.856;2024-01-30T02:04:16;14.40;;;7.63;;
85695;SDS011;76127;57.874;6.856;2024-01-30T02:06:42;13.93;;;7.60;;
85695;SDS011;76127;57.874;6.856;2024-01-30T02:09:09;12.75;;;6.95;;
85695;SDS011;76127;57.874;6.856;2024-01-30T02:11:35;13.98;;;6.72;;
85695;SDS011;76127;57.874;6.856;2024-01-30T02:14:04;11.50;;;6.88;;
85695;SDS011;76127;57.874;6.856;2024-01-30T02:16:31;11.70;;;7.25;;
85695;SDS011;76127;57.874;6.856;2024-01-30T02:18:57;14.82;;;7.13;;
85695;SDS011;76127;57.874;6.856;2024-01-30T02:21:23;13.85;;;6.97;;
85695;SDS011;76127;57.874;6.856;2024-01-30T02:23:50;14.63;;;7.13;;
85695;SDS011;76127;57.874;6.856;2024-01-30T02:26:17;11.45;;;6.68;;
85695;SDS011;76127;57.874;6.856;2024-01-30T02:28:44;13.77;;;7.28;;
85695;SDS011;76127;57.874;6.856;2024-01-30T02:31:10;13.02;;;6.93;;
85695;SDS011;76127;57.874;6.856;2024-01-30T02:33:36;11.05;;;6.68;;
85695;SDS011;76127;57.874;6.856;2024-01-30T02:36:02;12.38;;;6.55;;
85695;SDS011;76127;57.874;6.856;2024-01-30T02:38:28;11.63;;;7.10;;
85695;SDS011;76127;57.874;6.856;2024-01-30T02:40:54;12.63;;;7.25;;
85695;SDS011;76127;57.874;6.856;2024-01-30T02:43:21;13.75;;;7.03;;
85695;SDS011;76127;57.874;6.856;2024-01-30T02:45:47;15.68;;;7.32;;
85695;SDS011;76127;57.874;6.856;2024-01-30T02:48:13;14.88;;;7.63;;
85695;SDS011;76127;57.874;6.856;2024-01-30T02:50:39;12.60;;;7.07;;
85695;SDS011;76127;57.874;6.856;2024-01-30T02:53:05;12.70;;;7.00;;
85695;SDS011;76127;57.874;6.856;2024-01-30T02:55:31;12.05;;;6.47;;
85695;SDS011;76127;57.874;6.856;2024-01-30T02:57:57;13.48;;;7.20;;
85695;SDS011;76127;57.874;6.856;2024-01-30T03:00:23;15.18;;;6.93;;
85695;SDS011;76127;57.874;6.856;2024-01-30T03:02:49;13.45;;;6.53;;
85695;SDS011;76127;57.874;6.856;2024-01-30T03:05:15;13.20;;;6.90;;
85695;SDS011;76127;57.874;6.856;2024-01-30T03:07:41;11.95;;;6.90;;
85695;SDS011;76127;57.874;6.856;2024-01-30T03:10:07;10.90;;;6.60;;
85695;SDS011;76127;57.874;6.856;2024-01-30T03:12:33;12.38;;;6.80;;
85695;SDS011;76127;57.874;6.856;2024-01-30T03:14:59;15.45;;;7.10;;
85695;SDS011;76127;57.874;6.856;2024-01-30T03:17:25;11.68;;;6.80;;
85695;SDS011;76127;57.874;6.856;2024-01-30T03:19:51;12.82;;;7.13;;
85695;SDS011;76127;57.874;6.856;2024-01-30T03:22:17;12.25;;;7.20;;
85695;SDS011;76127;57.874;6.856;2024-01-30T03:24:43;12.25;;;6.95;;
85695;SDS011;76127;57.874;6.856;2024-01-30T03:27:09;14.40;;;7.15;;
85695;SDS011;76127;57.874;6.856;2024-01-30T03:29:35;12.73;;;7.50;;
85695;SDS011;76127;57.874;6.856;2024-01-30T03:32:02;13.48;;;7.07;;
85695;SDS011;76127;57.874;6.856;2024-01-30T03:34:29;12.75;;;7.25;;
85695;SDS011;76127;57.874;6.856;2024-01-30T03:36:55;11.48;;;6.82;;
85695;SDS011;76127;57.874;6.856;2024-01-30T03:39:21;13.73;;;7.18;;
85695;SDS011;76127;57.874;6.856;2024-01-30T03:41:48;11.55;;;6.90;;
85695;SDS011;76127;57.874;6.856;2024-01-30T03:44:14;15.05;;;7.22;;
85695;SDS011;76127;57.874;6.856;2024-01-30T03:46:40;12.50;;;7.07;;
85695;SDS011;76127;57.874;6.856;2024-01-30T03:49:06;12.18;;;7.07;;
85695;SDS011;76127;57.874;6.856;2024-01-30T03:51:32;13.68;;;7.43;;
85695;SDS011;76127;57.874;6.856;2024-01-30T03:53:58;12.30;;;6.63;;
85695;SDS011;76127;57.874;6.856;2024-01-30T03:56:24;12.65;;;7.32;;
85695;SDS011;76127;57.874;6.856;2024-01-30T03:58:51;13.65;;;6.80;;
85695;SDS011;76127;57.874;6.856;2024-01-30T04:01:16;11.60;;;6.95;;
85695;SDS011;76127;57.874;6.856;2024-01-30T04:03:43;16.10;;;6.93;;
85695;SDS011;76127;57.874;6.856;2024-01-30T04:06:09;12.48;;;6.82;;
85695;SDS011;76127;57.874;6.856;2024-01-30T04:08:35;12.32;;;7.03;;
85695;SDS011;76127;57.874;6.856;2024-01-30T04:11:05;12.15;;;7.32;;
85695;SDS011;76127;57.874;6.856;2024-01-30T04:13:32;11.93;;;7.30;;
85695;SDS011;76127;57.874;6.856;2024-01-30T04:15:59;13.75;;;7.20;;
85695;SDS011;76127;57.874;6.856;2024-01-30T04:18:28;13.60;;;7.65;;
85695;SDS011;76127;57.874;6.856;2024-01-30T04:20:55;14.40;;;6.85;;
85695;SDS011;76127;57.874;6.856;2024-01-30T04:23:21;16.20;;;7.72;;
85695;SDS011;76127;57.874;6.856;2024-01-30T04:25:47;11.75;;;6.63;;
85695;SDS011;76127;57.874;6.856;2024-01-30T04:28:13;10.20;;;6.55;;
85695;SDS011;76127;57.874;6.856;2024-01-30T04:30:39;17.75;;;7.75;;
85695;SDS011;76127;57.874;6.856;2024-01-30T04:33:05;13.25;;;7.45;;
85695;SDS011;76127;57.874;6.856;2024-01-30T04:35:31;12.65;;;6.70;;
85695;SDS011;76127;57.874;6.856;2024-01-30T04:37:57;11.82;;;6.18;;
85695;SDS011;76127;57.874;6.856;2024-01-30T04:40:23;13.02;;;7.35;;
85695;SDS011;76127;57.874;6.856;2024-01-30T04:42:49;12.70;;;6.63;;
85695;SDS011;76127;57.874;6.856;2024-01-30T04:45:15;15.27;;;7.85;;
85695;SDS011;76127;57.874;6.856;2024-01-30T04:47:41;12.00;;;6.70;;
85695;SDS011;76127;57.874;6.856;2024-01-30T04:50:08;12.82;;;7.13;;
85695;SDS011;76127;57.874;6.856;2024-01-30T04:52:34;14.50;;;6.97;;
85695;SDS011;76127;57.874;6.856;2024-01-30T04:55:01;11.57;;;6.95;;
85695;SDS011;76127;57.874;6.856;2024-01-30T04:57:27;10.95;;;6.40;;
85695;SDS011;76127;57.874;6.856;2024-01-30T04:59:53;16.52;;;7.13;;
85695;SDS011;76127;57.874;6.856;2024-01-30T05:02:19;12.45;;;7.30;;
85695;SDS011;76127;57.874;6.856;2024-01-30T05:04:45;14.45;;;7.30;;
85695;SDS011;76127;57.874;6.856;2024-01-30T05:07:11;11.57;;;6.72;;
85695;SDS011;76127;57.874;6.856;2024-01-30T05:09:38;11.20;;;6.65;;
85695;SDS011;76127;57.874;6.856;2024-01-30T05:12:04;15.50;;;7.28;;
85695;SDS011;76127;57.874;6.856;2024-01-30T05:14:30;13.10;;;6.20;;
85695;SDS011;76127;57.874;6.856;2024-01-30T05:16:56;10.60;;;6.75;;
85695;SDS011;76127;57.874;6.856;2024-01-30T05:19:22;15.52;;;7.13;;
85695;SDS011;76127;57.874;6.856;2024-01-30T05:21:48;12.32;;;7.20;;
85695;SDS011;76127;57.874;6.856;2024-01-30T05:24:15;11.88;;;6.28;;
85695;SDS011;76127;57.874;6.856;2024-01-30T05:26:41;11.65;;;6.65;;
85695;SDS011;76127;57.874;6.856;2024-01-30T05:29:07;14.20;;;7.20;;
85695;SDS011;76127;57.874;6.856;2024-01-30T05:31:33;15.18;;;7.20;;
85695;SDS011;76127;57.874;6.856;2024-01-30T05:34:00;13.07;;;7.28;;
85695;SDS011;76127;57.874;6.856;2024-01-30T05:36:26;11.57;;;6.68;;
85695;SDS011;76127;57.874;6.856;2024-01-30T05:38:52;11.98;;;6.88;;
85695;SDS011;76127;57.874;6.856;2024-01-30T05:41:18;12.07;;;6.88;;
85695;SDS011;76127;57.874;6.856;2024-01-30T05:43:44;11.73;;;6.97;;
85695;SDS011;76127;57.874;6.856;2024-01-30T05:46:10;12.27;;;7.50;;
85695;SDS011;76127;57.874;6.856;2024-01-30T05:48:37;13.25;;;6.65;;
85695;SDS011;76127;57.874;6.856;2024-01-30T05:51:03;15.13;;;7.10;;
85695;SDS011;76127;57.874;6.856;2024-01-30T05:53:29;13.27;;;7.53;;
85695;SDS011;76127;57.874;6.856;2024-01-30T05:55:55;15.82;;;7.22;;
85695;SDS011;76127;57.874;6.856;2024-01-30T05:58:21;13.63;;;6.78;;
85695;SDS011;76127;57.874;6.856;2024-01-30T06:00:47;12.20;;;7.35;;
85695;SDS011;76127;57.874;6.856;2024-01-30T06:03:13;14.55;;;7.38;;
85695;SDS011;76127;57.874;6.856;2024-01-30T06:05:39;12.32;;;6.32;;
85695;SDS011;76127;57.874;6.856;2024-01-30T06:08:05;12.85;;;7.57;;
85695;SDS011;76127;57.874;6.856;2024-01-30T06:10:31;14.63;;;6.93;;
85695;SDS011;76127;57.874;6.856;2024-01-30T06:12:57;13.27;;;6.90;;
85695;SDS011;76127;57.874;6.856;2024-01-30T06:15:23;12.48;;;7.13;;
85695;SDS011;76127;57.874;6.856;2024-01-30T06:17:49;12.85;;;7.22;;
85695;SDS011;76127;57.874;6.856;2024-01-30T06:20:15;12.38;;;6.82;;
85695;SDS011;76127;57.874;6.856;2024-01-30T06:22:42;11.15;;;6.57;;
85695;SDS011;76127;57.874;6.856;2024-01-30T06:25:08;14.05;;;7.80;;
85695;SDS011;76127;57.874;6.856;2024-01-30T06:27:34;11.80;;;6.93;;
85695;SDS011;76127;57.874;6.856;2024-01-30T06:30:00;13.32;;;7.32;;
85695;SDS011;76127;57.874;6.856;2024-01-30T06:32:26;14.82;;;7.18;;
85695;SDS011;76127;57.874;6.856;2024-01-30T06:34:53;14.52;;;7.55;;
85695;SDS011;76127;57.874;6.856;2024-01-30T06:37:19;14.45;;;7.03;;
85695;SDS011;76127;57.874;6.856;2024-01-30T06:39:45;12.32;;;7.22;;
85695;SDS011;76127;57.874;6.856;2024-01-30T06:42:11;14.20;;;6.88;;
85695;SDS011;76127;57.874;6.856;2024-01-30T06:44:37;12.07;;;7.32;;
85695;SDS011;76127;57.874;6.856;2024-01-30T06:47:03;13.75;;;7.70;;
85695;SDS011;76127;57.874;6.856;2024-01-30T06:49:30;14.45;;;7.22;;
85695;SDS011;76127;57.874;6.856;2024-01-30T06:51:56;15.60;;;7.55;;
85695;SDS011;76127;57.874;6.856;2024-01-30T06:54:22;14.45;;;7.10;;
85695;SDS011;76127;57.874;6.856;2024-01-30T06:56:48;14.05;;;7.57;;
85695;SDS011;76127;57.874;6.856;2024-01-30T06:59:14;14.32;;;7.53;;
85695;SDS011;76127;57.874;6.856;2024-01-30T07:01:40;15.63;;;8.07;;
85695;SDS011;76127;57.874;6.856;2024-01-30T07:04:07;11.70;;;7.35;;
85695;SDS011;76127;57.874;6.856;2024-01-30T07:06:33;11.02;;;6.57;;
85695;SDS011;76127;57.874;6.856;2024-01-30T07:08:59;13.60;;;7.30;;
85695;SDS011;76127;57.874;6.856;2024-01-30T07:11:25;17.77;;;7.05;;
85695;SDS011;76127;57.874;6.856;2024-01-30T07:13:51;13.45;;;7.43;;
85695;SDS011;76127;57.874;6.856;2024-01-30T07:16:17;11.82;;;7.25;;
85695;SDS011;76127;57.874;6.856;2024-01-30T07:18:43;13.63;;;7.40;;
85695;SDS011;76127;57.874;6.856;2024-01-30T07:21:10;14.32;;;7.50;;
85695;SDS011;76127;57.874;6.856;2024-01-30T07:23:36;13.82;;;7.57;;
85695;SDS011;76127;57.874;6.856;2024-01-30T07:26:06;13.48;;;7.13;;
85695;SDS011;76127;57.874;6.856;2024-01-30T07:28:33;16.40;;;7.55;;
85695;SDS011;76127;57.874;6.856;2024-01-30T07:31:00;14.20;;;7.82;;
85695;SDS011;76127;57.874;6.856;2024-01-30T07:33:27;14.85;;;7.57;;
85695;SDS011;76127;57.874;6.856;2024-01-30T07:35:53;16.35;;;8.02;;
85695;SDS011;76127;57.874;6.856;2024-01-30T07:38:19;15.05;;;7.63;;
85695;SDS011;76127;57.874;6.856;2024-01-30T07:40:45;18.20;;;8.20;;
85695;SDS011;76127;57.874;6.856;2024-01-30T07:43:12;15.18;;;8.00;;
85695;SDS011;76127;57.874;6.856;2024-01-30T07:45:38;14.60;;;8.27;;
85695;SDS011;76127;57.874;6.856;2024-01-30T07:48:07;13.45;;;7.57;;
85695;SDS011;76127;57.874;6.856;2024-01-30T07:50:33;13.25;;;7.63;;
85695;SDS011;76127;57.874;6.856;2024-01-30T07:53:00;15.18;;;7.90;;
85695;SDS011;76127;57.874;6.856;2024-01-30T07:55:26;14.65;;;7.72;;
85695;SDS011;76127;57.874;6.856;2024-01-30T07:57:54;13.95;;;7.70;;
85695;SDS011;76127;57.874;6.856;2024-01-30T08:00:20;21.90;;;9.40;;
85695;SDS011;76127;57.874;6.856;2024-01-30T08:02:47;15.45;;;7.97;;
85695;SDS011;76127;57.874;6.856;2024-01-30T08:05:13;18.75;;;7.80;;
85695;SDS011;76127;57.874;6.856;2024-01-30T08:07:42;16.27;;;7.88;;
85695;SDS011;76127;57.874;6.856;2024-01-30T08:10:09;12.85;;;7.38;;
85695;SDS011;76127;57.874;6.856;2024-01-30T08:12:36;12.00;;;7.18;;
85695;SDS011;76127;57.874;6.856;2024-01-30T08:15:02;15.38;;;7.82;;
85695;SDS011;76127;57.874;6.856;2024-01-30T08:17:29;13.85;;;7.85;;
85695;SDS011;76127;57.874;6.856;2024-01-30T08:19:55;14.88;;;8.02;;
85695;SDS011;76127;57.874;6.856;2024-01-30T08:22:21;15.32;;;8.20;;
85695;SDS011;76127;57.874;6.856;2024-01-30T08:24:47;19.17;;;8.45;;
85695;SDS011;76127;57.874;6.856;2024-01-30T08:27:14;16.45;;;9.43;;
85695;SDS011;76127;57.874;6.856;2024-01-30T08:29:40;14.75;;;8.73;;
85695;SDS011;76127;57.874;6.856;2024-01-30T08:32:06;17.00;;;9.77;;
85695;SDS011;76127;57.874;6.856;2024-01-30T08:34:33;16.23;;;9.05;;
85695;SDS011;76127;57.874;6.856;2024-01-30T08:36:59;15.80;;;8.45;;
85695;SDS011;76127;57.874;6.856;2024-01-30T08:39:25;20.20;;;9.80;;
85695;SDS011;76127;57.874;6.856;2024-01-30T08:41:51;16.55;;;8.40;;
85695;SDS011;76127;57.874;6.856;2024-01-30T08:44:17;15.27;;;8.82;;
85695;SDS011;76127;57.874;6.856;2024-01-30T08:46:44;18.45;;;8.52;;
85695;SDS011;76127;57.874;6.856;2024-01-30T08:49:10;15.00;;;8.77;;
85695;SDS011;76127;57.874;6.856;2024-01-30T08:51:38;20.17;;;9.50;;
85695;SDS011;76127;57.874;6.856;2024-01-30T08:54:05;18.70;;;9.75;;
85695;SDS011;76127;57.874;6.856;2024-01-30T08:56:31;19.17;;;9.27;;
85695;SDS011;76127;57.874;6.856;2024-01-30T08:58:57;18.38;;;9.88;;
85695;SDS011;76127;57.874;6.856;2024-01-30T09:01:23;19.88;;;10.63;;
85695;SDS011;76127;57.874;6.856;2024-01-30T09:03:50;21.75;;;13.40;;
85695;SDS011;76127;57.874;6.856;2024-01-30T09:06:16;19.52;;;11.38;;
85695;SDS011;76127;57.874;6.856;2024-01-30T09:08:42;15.95;;;10.55;;
85695;SDS011;76127;57.874;6.856;2024-01-30T09:11:09;25.10;;;11.68;;
85695;SDS011;76127;57.874;6.856;2024-01-30T09:13:35;18.45;;;11.23;;
85695;SDS011;76127;57.874;6.856;2024-01-30T09:16:02;20.50;;;9.93;;
85695;SDS011;76127;57.874;6.856;2024-01-30T09:18:28;20.30;;;10.02;;
85695;SDS011;76127;57.874;6.856;2024-01-30T09:20:54;18.33;;;9.73;;
85695;SDS011;76127;57.874;6.856;2024-01-30T09:23:20;25.45;;;10.13;;
85695;SDS011;76127;57.874;6.856;2024-01-30T09:25:47;14.75;;;8.30;;
85695;SDS011;76127;57.874;6.856;2024-01-30T09:28:13;16.45;;;8.68;;
85695;SDS011;76127;57.874;6.856;2024-01-30T09:30:39;15.10;;;7.70;;
85695;SDS011;76127;57.874;6.856;2024-01-30T09:33:05;17.10;;;7.82;;
85695;SDS011;76127;57.874;6.856;2024-01-30T09:35:32;13.52;;;6.72;;
85695;SDS011;76127;57.874;6.856;2024-01-30T09:37:58;17.58;;;6.35;;
85695;SDS011;76127;57.874;6.856;2024-01-30T09:40:24;15.48;;;5.70;;
85695;SDS011;76127;57.874;6.856;2024-01-30T09:42:51;11.88;;;5.88;;
85695;SDS011;76127;57.874;6.856;2024-01-30T09:45:23;15.23;;;6.18;;
85695;SDS011;76127;57.874;6.856;2024-01-30T09:47:51;12.98;;;5.78;;
85695;SDS011;76127;57.874;6.856;2024-01-30T09:50:17;14.35;;;6.93;;
85695;SDS011;76127;57.874;6.856;2024-01-30T09:52:44;17.70;;;6.53;;
85695;SDS011;76127;57.874;6.856;2024-01-30T09:55:10;11.25;;;5.35;;
85695;SDS011;76127;57.874;6.856;2024-01-30T09:57:36;12.38;;;4.90;;
85695;SDS011;76127;57.874;6.856;2024-01-30T10:00:03;14.40;;;5.53;;
85695;SDS011;76127;57.874;6.856;2024-01-30T10:02:32;17.20;;;5.50;;
85695;SDS011;76127;57.874;6.856;2024-01-30T10:04:59;17.00;;;5.28;;
85695;SDS011;76127;57.874;6.856;2024-01-30T10:07:26;9.60;;;4.63;;
85695;SDS011;76127;57.874;6.856;2024-01-30T10:09:52;14.60;;;4.43;;
85695;SDS011;76127;57.874;6.856;2024-01-30T10:12:19;7.93;;;3.38;;
85695;SDS011;76127;57.874;6.856;2024-01-30T10:14:45;9.60;;;2.80;;
85695;SDS011;76127;57.874;6.856;2024-01-30T10:17:11;7.63;;;2.22;;
85695;SDS011;76127;57.874;6.856;2024-01-30T10:19:38;7.68;;;2.35;;
85695;SDS011;76127;57.874;6.856;2024-01-30T10:22:04;8.15;;;1.98;;
85695;SDS011;76127;57.874;6.856;2024-01-30T10:24:31;6.03;;;1.60;;
85695;SDS011;76127;57.874;6.856;2024-01-30T10:26:59;10.70;;;1.77;;
85695;SDS011;76127;57.874;6.856;2024-01-30T10:29:26;7.88;;;2.90;;
85695;SDS011;76127;57.874;6.856;2024-01-30T10:32:02;9.65;;;3.75;;
85695;SDS011;76127;57.874;6.856;2024-01-30T10:34:30;4.32;;;1.50;;
85695;SDS011;76127;57.874;6.856;2024-01-30T10:39:37;6.90;;;1.70;;
85695;SDS011;76127;57.874;6.856;2024-01-30T10:42:05;5.35;;;1.20;;
85695;SDS011;76127;57.874;6.856;2024-01-30T10:44:35;5.20;;;1.88;;
85695;SDS011;76127;57.874;6.856;2024-01-30T10:47:06;4.10;;;1.13;;
85695;SDS011;76127;57.874;6.856;2024-01-30T10:49:38;5.40;;;1.20;;
85695;SDS011;76127;57.874;6.856;2024-01-30T10:52:07;2.95;;;0.90;;
85695;SDS011;76127;57.874;6.856;2024-01-30T10:54:34;5.60;;;1.65;;
85695;SDS011;76127;57.874;6.856;2024-01-30T10:57:01;3.95;;;1.10;;
85695;SDS011;76127;57.874;6.856;2024-01-30T10:59:29;5.57;;;1.40;;
85695;SDS011;76127;57.874;6.856;2024-01-30T11:01:57;5.88;;;1.30;;
85695;SDS011;76127;57.874;6.856;2024-01-30T11:04:24;4.70;;;1.30;;
85695;SDS011;76127;57.874;6.856;2024-01-30T11:06:50;4.03;;;1.00;;
85695;SDS011;76127;57.874;6.856;2024-01-30T11:09:17;4.70;;;1.27;;
85695;SDS011;76127;57.874;6.856;2024-01-30T11:11:50;6.60;;;1.10;;
85695;SDS011;76127;57.874;6.856;2024-01-30T11:14:22;2.45;;;1.20;;
85695;SDS011;76127;57.874;6.856;2024-01-30T11:16:50;6.35;;;1.33;;
85695;SDS011;76127;57.874;6.856;2024-01-30T11:19:21;4.25;;;1.08;;
85695;SDS011;76127;57.874;6.856;2024-01-30T11:21:50;6.47;;;1.25;;
85695;SDS011;76127;57.874;6.856;2024-01-30T11:24:19;3.75;;;0.98;;
85695;SDS011;76127;57.874;6.856;2024-01-30T11:26:48;6.53;;;1.30;;
85695;SDS011;76127;57.874;6.856;2024-01-30T11:29:29;5.25;;;1.25;;
85695;SDS011;76127;57.874;6.856;2024-01-30T11:31:56;3.58;;;1.60;;
85695;SDS011;76127;57.874;6.856;2024-01-30T11:34:23;6.82;;;2.03;;
85695;SDS011;76127;57.874;6.856;2024-01-30T11:36:52;7.90;;;2.10;;
85695;SDS011;76127;57.874;6.856;2024-01-30T11:39:27;10.05;;;1.60;;
85695;SDS011;76127;57.874;6.856;2024-01-30T11:41:55;9.80;;;2.95;;
85695;SDS011;76127;57.874;6.856;2024-01-30T11:44:22;16.92;;;7.53;;
85695;SDS011;76127;57.874;6.856;2024-01-30T11:46:49;10.73;;;3.90;;
85695;SDS011;76127;57.874;6.856;2024-01-30T11:49:17;15.48;;;5.63;;
85695;SDS011;76127;57.874;6.856;2024-01-30T11:51:47;10.20;;;3.92;;
85695;SDS011;76127;57.874;6.856;2024-01-30T11:54:14;7.53;;;2.35;;
85695;SDS011;76127;57.874;6.856;2024-01-30T11:56:41;6.70;;;2.00;;
85695;SDS011;76127;57.874;6.856;2024-01-30T11:59:08;6.38;;;1.58;;
85695;SDS011;76127;57.874;6.856;2024-01-30T12:01:34;4.03;;;1.33;;
85695;SDS011;76127;57.874;6.856;2024-01-30T12:04:00;7.90;;;1.92;;
85695;SDS011;76127;57.874;6.856;2024-01-30T12:06:26;8.27;;;1.60;;
85695;SDS011;76127;57.874;6.856;2024-01-30T12:08:59;8.50;;;1.60;;
85695;SDS011;76127;57.874;6.856;2024-01-30T12:11:29;8.35;;;1.50;;
85695;SDS011;76127;57.874;6.856;2024-01-30T12:13:55;3.17;;;1.30;;
85695;SDS011;76127;57.874;6.856;2024-01-30T12:16:21;5.35;;;1.15;;
85695;SDS011;76127;57.874;6.856;2024-01-30T12:18:47;5.95;;;1.30;;
85695;SDS011;76127;57.874;6.856;2024-01-30T12:21:17;4.38;;;1.13;;
85695;SDS011;76127;57.874;6.856;2024-01-30T12:23:43;5.03;;;1.33;;
85695;SDS011;76127;57.874;6.856;2024-01-30T12:26:10;4.97;;;1.40;;
85695;SDS011;76127;57.874;6.856;2024-01-30T12:28:37;4.63;;;1.27;;
85695;SDS011;76127;57.874;6.856;2024-01-30T12:31:12;7.25;;;1.67;;
85695;SDS011;76127;57.874;6.856;2024-01-30T12:33:38;4.80;;;1.08;;
85695;SDS011;76127;57.874;6.856;2024-01-30T12:36:04;4.65;;;1.25;;
85695;SDS011;76127;57.874;6.856;2024-01-30T12:38:30;4.32;;;1.20;;
85695;SDS011;76127;57.874;6.856;2024-01-30T12:40:56;5.13;;;1.33;;
85695;SDS011;76127;57.874;6.856;2024-01-30T12:43:26;5.07;;;1.30;;
85695;SDS011;76127;57.874;6.856;2024-01-30T12:45:53;4.68;;;1.20;;
85695;SDS011;76127;57.874;6.856;2024-01-30T12:48:19;6.20;;;1.50;;
85695;SDS011;76127;57.874;6.856;2024-01-30T12:50:45;5.05;;;1.40;;
85695;SDS011;76127;57.874;6.856;2024-01-30T12:53:11;4.47;;;1.77;;
85695;SDS011;76127;57.874;6.856;2024-01-30T12:55:37;4.45;;;1.60;;
85695;SDS011;76127;57.874;6.856;2024-01-30T12:58:03;3.17;;;1.50;;
85695;SDS011;76127;57.874;6.856;2024-01-30T13:00:30;5.50;;;1.88;;
85695;SDS011;76127;57.874;6.856;2024-01-30T13:02:56;7.35;;;1.80;;
85695;SDS011;76127;57.874;6.856;2024-01-30T13:05:23;5.93;;;1.70;;
85695;SDS011;76127;57.874;6.856;2024-01-30T13:07:50;6.45;;;2.20;;
85695;SDS011;76127;57.874;6.856;2024-01-30T13:10:17;5.97;;;2.00;;
85695;SDS011;76127;57.874;6.856;2024-01-30T13:12:42;8.50;;;1.90;;
85695;SDS011;76127;57.874;6.856;2024-01-30T13:15:08;6.05;;;1.85;;
85695;SDS011;76127;57.874;6.856;2024-01-30T13:17:36;8.15;;;1.95;;
85695;SDS011;76127;57.874;6.856;2024-01-30T13:20:02;10.60;;;1.90;;
85695;SDS011;76127;57.874;6.856;2024-01-30T13:22:29;6.22;;;1.60;;
85695;SDS011;76127;57.874;6.856;2024-01-30T13:24:55;6.18;;;1.70;;
85695;SDS011;76127;57.874;6.856;2024-01-30T13:27:21;5.03;;;1.45;;
85695;SDS011;76127;57.874;6.856;2024-01-30T13:29:47;6.22;;;1.70;;
85695;SDS011;76127;57.874;6.856;2024-01-30T13:32:13;5.50;;;1.60;;
85695;SDS011;76127;57.874;6.856;2024-01-30T13:34:39;7.30;;;1.83;;
85695;SDS011;76127;57.874;6.856;2024-01-30T13:37:06;7.50;;;1.90;;
85695;SDS011;76127;57.874;6.856;2024-01-30T13:39:32;7.72;;;2.03;;
85695;SDS011;76127;57.874;6.856;2024-01-30T13:41:58;5.60;;;1.90;;
85695;SDS011;76127;57.874;6.856;2024-01-30T13:44:24;6.15;;;1.80;;
85695;SDS011;76127;57.874;6.856;2024-01-30T13:46:50;5.22;;;1.83;;
85695;SDS011;76127;57.874;6.856;2024-01-30T13:49:16;7.47;;;2.00;;
85695;SDS011;76127;57.874;6.856;2024-01-30T13:51:42;8.70;;;1.92;;
85695;SDS011;76127;57.874;6.856;2024-01-30T13:54:08;6.70;;;1.90;;
85695;SDS011;76127;57.874;6.856;2024-01-30T13:56:34;8.25;;;1.90;;
85695;SDS011;76127;57.874;6.856;2024-01-30T13:59:01;5.43;;;1.80;;
85695;SDS011;76127;57.874;6.856;2024-01-30T14:01:30;6.57;;;1.77;;
85695;SDS011;76127;57.874;6.856;2024-01-30T14:03:56;7.00;;;1.92;;
85695;SDS011;76127;57.874;6.856;2024-01-30T14:06:22;3.90;;;1.63;;
85695;SDS011;76127;57.874;6.856;2024-01-30T14:08:48;7.35;;;1.95;;
85695;SDS011;76127;57.874;6.856;2024-01-30T14:11:14;9.57;;;1.92;;
85695;SDS011;76127;57.874;6.856;2024-01-30T14:13:40;6.07;;;2.00;;
85695;SDS011;76127;57.874;6.856;2024-01-30T14:16:06;7.78;;;2.20;;
85695;SDS011;76127;57.874;6.856;2024-01-30T14:18:32;6.03;;;2.10;;
85695;SDS011;76127;57.874;6.856;2024-01-30T14:20:58;5.20;;;1.92;;
85695;SDS011;76127;57.874;6.856;2024-01-30T14:23:24;8.73;;;2.50;;
85695;SDS011;76127;57.874;6.856;2024-01-30T14:25:50;6.93;;;2.10;;
85695;SDS011;76127;57.874;6.856;2024-01-30T14:28:17;8.65;;;1.73;;
85695;SDS011;76127;57.874;6.856;2024-01-30T14:30:43;5.28;;;1.60;;
85695;SDS011;76127;57.874;6.856;2024-01-30T14:33:09;6.68;;;1.80;;
85695;SDS011;76127;57.874;6.856;2024-01-30T14:35:35;10.65;;;2.38;;
85695;SDS011;76127;57.874;6.856;2024-01-30T14:38:01;13.60;;;6.70;;